Time;durP1;ratioP1;P1;durP2;ratioP2;P2;SDS_P1;SDS_P2;PMS_P1;PMS_P2;Temp;Humidity;BMP_temperature;BMP_pressure;BME280_temperature;BME280_humidity;BME280_pressure;Samples;Min_cycle;Max_cycle;Signal;HPM_P1;HPM_P2
2022/05/20 00:02:27;;;;;;;4.87;3.30;;;25.70;99.90;;;;;;1741162;82;21554;-85
2022/05/20 00:04:59;;;;;;;5.20;3.25;;;25.60;99.90;;;;;;1751788;82;21705;-85
2022/05/20 00:07:31;;;;;;;7.10;3.10;;;26.00;99.90;;;;;;1750895;82;21254;-86
2022/05/20 00:10:03;;;;;;;4.83;2.77;;;26.00;99.90;;;;;;1751854;82;21619;-85
2022/05/20 00:12:34;;;;;;;5.22;3.30;;;25.60;99.90;;;;;;1751049;82;21270;-85
2022/05/20 00:15:07;;;;;;;6.62;3.37;;;25.60;99.90;;;;;;1752087;82;21134;-85
2022/05/20 00:17:39;;;;;;;6.25;3.58;;;25.60;99.90;;;;;;1751549;82;21170;-85
2022/05/20 00:20:13;;;;;;;9.05;3.45;;;25.60;99.90;;;;;;1751702;82;21210;-85
2022/05/20 00:22:44;;;;;;;7.10;3.35;;;25.70;99.90;;;;;;1751132;80;21202;-85
2022/05/20 00:27:50;;;;;;;7.00;3.22;;;25.90;99.90;;;;;;1750426;82;21130;-84
2022/05/20 00:30:25;;;;;;;8.13;3.33;;;26.20;99.90;;;;;;1751522;82;21241;-85
2022/05/20 00:32:56;;;;;;;7.97;3.60;;;25.80;99.90;;;;;;1750854;82;21485;-85
2022/05/20 00:35:28;;;;;;;5.28;3.33;;;25.90;99.90;;;;;;1726799;82;21254;-84
2022/05/20 00:37:59;;;;;;;8.00;3.20;;;26.00;99.90;;;;;;1751705;82;21122;-84
2022/05/20 00:40:31;;;;;;;6.17;2.95;;;25.80;99.90;;;;;;1751163;82;21654;-85
2022/05/20 00:43:37;;;;;;;11.38;3.27;;;26.20;99.90;;;;;;1748597;82;21245;-84
2022/05/20 00:46:11;;;;;;;7.85;3.10;;;25.90;99.90;;;;;;1757200;81;21193;-84
2022/05/20 00:48:43;;;;;;;7.28;3.12;;;26.10;99.90;;;;;;1751399;82;21123;-85
2022/05/20 00:51:16;;;;;;;4.75;2.80;;;26.20;99.90;;;;;;1751538;82;21143;-85
2022/05/20 00:53:50;;;;;;;7.55;3.10;;;25.90;99.90;;;;;;1751438;82;21250;-84
2022/05/20 00:56:24;;;;;;;5.17;2.47;;;26.30;99.90;;;;;;1750445;82;21262;-85
2022/05/20 00:58:55;;;;;;;4.97;2.55;;;26.00;99.90;;;;;;1751318;81;21677;-84
2022/05/20 01:01:28;;;;;;;4.62;2.83;;;26.00;99.90;;;;;;1740812;82;21152;-85
2022/05/20 01:03:59;;;;;;;7.30;3.33;;;26.20;99.90;;;;;;1719811;82;21299;-85
2022/05/20 01:06:30;;;;;;;3.77;2.55;;;26.40;99.90;;;;;;1746370;82;21119;-86
2022/05/20 01:09:04;;;;;;;4.83;2.10;;;26.30;99.90;;;;;;1751124;82;21224;-84
2022/05/20 01:11:37;;;;;;;4.62;2.52;;;26.40;99.90;;;;;;1734284;82;21190;-84
2022/05/20 01:14:11;;;;;;;5.25;2.77;;;26.20;99.90;;;;;;1750785;82;21206;-85
2022/05/20 01:16:41;;;;;;;8.28;3.10;;;26.30;99.90;;;;;;1738031;82;21263;-85
2022/05/20 01:19:15;;;;;;;6.80;3.20;;;26.30;99.90;;;;;;1735682;82;21140;-86
2022/05/20 01:21:46;;;;;;;6.00;3.08;;;26.30;99.90;;;;;;1743569;82;21648;-87
2022/05/20 01:24:16;;;;;;;6.22;3.10;;;26.40;99.90;;;;;;1736764;80;21227;-86
2022/05/20 01:26:47;;;;;;;5.75;2.62;;;26.40;99.90;;;;;;1750955;82;21179;-86
2022/05/20 01:29:19;;;;;;;8.33;2.90;;;26.50;99.90;;;;;;1750723;82;21201;-85
2022/05/20 01:31:50;;;;;;;4.58;2.50;;;26.90;99.90;;;;;;1754314;80;21185;-86
2022/05/20 01:34:21;;;;;;;3.52;2.60;;;26.60;99.90;;;;;;1745848;82;21196;-85
2022/05/20 01:36:51;;;;;;;6.92;2.87;;;26.80;99.90;;;;;;1735089;80;21166;-86
2022/05/20 01:39:22;;;;;;;8.10;3.52;;;26.80;99.90;;;;;;1748812;80;21170;-86
2022/05/20 01:41:56;;;;;;;5.10;3.08;;;27.00;99.90;;;;;;1740284;80;21189;-86
2022/05/20 01:44:29;;;;;;;5.55;3.10;;;27.20;99.90;;;;;;1742688;81;21154;-85
2022/05/20 01:47:04;;;;;;;5.58;3.70;;;27.00;99.90;;;;;;1762362;81;21185;-86
2022/05/20 01:49:37;;;;;;;7.95;3.02;;;27.10;99.90;;;;;;1753394;81;21203;-85
2022/05/20 01:52:12;;;;;;;4.22;2.87;;;27.10;99.90;;;;;;1741924;80;21676;-85
2022/05/20 01:54:45;;;;;;;5.60;2.70;;;27.10;99.90;;;;;;1748278;80;21164;-86
2022/05/20 01:57:19;;;;;;;5.85;2.30;;;27.30;99.90;;;;;;1751430;82;21182;-85
2022/05/20 01:59:53;;;;;;;7.28;2.80;;;27.10;99.90;;;;;;1750760;82;21333;-86
2022/05/20 02:02:26;;;;;;;6.05;2.92;;;27.20;99.90;;;;;;1751367;82;21686;-86
2022/05/20 02:04:59;;;;;;;5.75;2.40;;;27.10;99.90;;;;;;1751568;82;21186;-86
2022/05/20 02:07:33;;;;;;;5.80;2.50;;;27.30;99.90;;;;;;1743583;81;21158;-86
2022/05/20 02:10:08;;;;;;;6.08;2.87;;;27.20;99.90;;;;;;1751634;82;21171;-86
2022/05/20 02:12:42;;;;;;;8.38;2.80;;;27.20;99.90;;;;;;1750565;82;21123;-85
2022/05/20 02:15:15;;;;;;;4.78;2.20;;;27.30;99.90;;;;;;1751132;82;21197;-87
2022/05/20 02:17:51;;;;;;;4.58;2.33;;;27.20;99.90;;;;;;1750354;82;21225;-87
2022/05/20 02:20:26;;;;;;;4.92;3.10;;;27.50;99.90;;;;;;1751822;82;21203;-87
2022/05/20 02:22:59;;;;;;;3.92;2.60;;;27.40;99.90;;;;;;1751305;82;21277;-85
2022/05/20 02:25:33;;;;;;;5.15;2.42;;;27.50;99.90;;;;;;1757942;81;21222;-87
2022/05/20 02:28:06;;;;;;;4.08;2.45;;;27.40;99.90;;;;;;1751934;82;21159;-86
2022/05/20 02:30:38;;;;;;;6.40;2.00;;;27.60;99.90;;;;;;1735661;82;21289;-87
2022/05/20 02:33:11;;;;;;;7.00;2.33;;;27.80;99.90;;;;;;1724498;83;21257;-86
2022/05/20 02:35:43;;;;;;;3.12;2.15;;;27.90;99.90;;;;;;1728931;82;21234;-85
2022/05/20 02:38:16;;;;;;;3.40;1.92;;;27.80;99.90;;;;;;1747566;82;21143;-85
2022/05/20 02:40:50;;;;;;;5.67;2.77;;;27.90;99.90;;;;;;1753139;81;21250;-83
2022/05/20 02:43:22;;;;;;;4.97;2.12;;;28.10;99.90;;;;;;1752557;81;21205;-84
2022/05/20 02:45:54;;;;;;;4.78;2.10;;;28.00;99.90;;;;;;1752564;82;21162;-85
2022/05/20 02:48:25;;;;;;;5.97;1.70;;;28.10;99.90;;;;;;1752606;82;21091;-84
2022/05/20 02:50:59;;;;;;;5.25;2.55;;;28.00;99.90;;;;;;1751697;82;21187;-87
2022/05/20 02:53:30;;;;;;;7.33;2.30;;;27.90;99.90;;;;;;1751890;82;21103;-86
2022/05/20 02:56:03;;;;;;;6.42;2.37;;;;;;;;;;1751756;82;21120;-87
2022/05/20 03:06:15;;;;;;;5.00;2.12;;;;;;;;;;1750558;82;21175;-87
2022/05/20 03:08:47;;;;;;;4.70;2.02;;;;;;;;;;1748595;81;21182;-87
2022/05/20 03:11:20;;;;;;;4.42;2.25;;;;;;;;;;1750737;82;21205;-88
2022/05/20 03:13:51;;;;;;;6.40;2.05;;;;;;;;;;1738635;82;21088;-87
2022/05/20 03:16:37;;;;;;;3.83;2.20;;;;;;;;;;1767888;81;21282;-88
2022/05/20 03:19:00;;;;;;;6.53;2.40;;;;;;;;;;1748187;80;21251;-88
2022/05/20 03:21:32;;;;;;;4.15;2.05;;;;;;;;;;1737903;80;21228;-87
2022/05/20 03:24:07;;;;;;;4.60;2.27;;;;;;;;;;1736518;81;21132;-87
2022/05/20 03:26:39;;;;;;;;;;;;;;;;;;1726499;81;21115;-86
2022/05/20 03:29:12;;;;;;;4.28;1.90;;;;;;;;;;1738932;81;20197;-87
2022/05/20 03:31:44;;;;;;;5.65;1.90;;;;;;;;;;1719536;81;21570;-87
2022/05/20 03:34:17;;;;;;;4.15;1.80;;;;;;;;;;1733868;82;21168;-87
2022/05/20 03:36:50;;;;;;;3.15;1.85;;;;;;;;;;1735229;82;21262;-85
2022/05/20 03:39:23;;;;;;;3.65;2.08;;;;;;;;;;1738233;81;22079;-86
2022/05/20 03:44:09;;;;;;;4.30;1.65;;;;;;;;;;1754577;81;21684;-86
2022/05/20 03:44:31;;;;;;;;;;;;;;;;;;1733455;82;21146;-87
2022/05/20 03:47:15;;;;;;;3.33;1.70;;;;;;;;;;1750126;82;20197;-87
2022/05/20 03:49:46;;;;;;;7.90;2.20;;;;;;;;;;1751509;81;21254;-87
2022/05/20 03:52:28;;;;;;;4.62;2.15;;;;;;;;;;1725716;83;21130;-86
2022/05/20 03:55:00;;;;;;;9.55;2.15;;;;;;;;;;1735778;82;21198;-87
2022/05/20 03:57:33;;;;;;;5.80;2.27;;;;;;;;;;1733366;82;21233;-87
2022/05/20 04:00:13;;;;;;;7.35;2.25;;;;;;;;;;1712117;83;21291;-86
2022/05/20 04:02:55;;;;;;;4.12;1.90;;;;;;;;;;1748134;81;21165;-86
2022/05/20 04:05:27;;;;;;;3.67;2.02;;;;;;;;;;1751958;81;21200;-88
2022/05/20 04:07:58;;;;;;;4.78;1.90;;;;;;;;;;1751716;81;21187;-87
2022/05/20 04:10:30;;;;;;;6.72;2.25;;;;;;;;;;1751737;82;21738;-85
2022/05/20 04:13:02;;;;;;;6.95;2.17;;;;;;;;;;1751092;82;21211;-87
2022/05/20 04:15:35;;;;;;;4.70;2.00;;;;;;;;;;1752130;82;21234;-87
2022/05/20 04:18:08;;;;;;;9.15;2.30;;;;;;;;;;1751461;82;21142;-87
2022/05/20 04:20:38;;;;;;;6.97;2.20;;;;;;;;;;1751741;82;21853;-87
2022/05/20 04:23:16;;;;;;;3.75;2.00;;;;;;;;;;1751837;81;21177;-86
2022/05/20 04:25:47;;;;;;;4.87;2.30;;;;;;;;;;1751282;82;21123;-88
2022/05/20 04:28:20;;;;;;;5.17;1.95;;;;;;;;;;1751698;82;21682;-87
2022/05/20 04:30:51;;;;;;;5.75;1.82;;;;;;;;;;1751945;82;21638;-88
2022/05/20 04:33:22;;;;;;;5.08;2.10;;;;;;;;;;1752042;82;21099;-86
2022/05/20 04:35:53;;;;;;;5.25;1.85;;;;;;;;;;1752029;82;21171;-87
2022/05/20 04:38:23;;;;;;;3.92;1.80;;;;;;;;;;1751957;82;21201;-86
2022/05/20 04:48:33;;;;;;;3.55;1.80;;;;;;;;;;1751098;82;21179;-86
2022/05/20 04:51:03;;;;;;;4.67;1.90;;;;;;;;;;1752010;82;21643;-86
2022/05/20 04:56:05;;;;;;;5.75;1.62;;;;;;;;;;1750396;82;21553;-87
2022/05/20 04:58:35;;;;;;;3.72;1.77;;;;;;;;;;1751912;82;21257;-87
2022/05/20 05:01:06;;;;;;;5.03;1.92;;;;;;;;;;1753344;82;21377;-86
2022/05/20 05:03:38;;;;;;;4.35;1.80;;;;;;;;;;1754933;82;21177;-87
2022/05/20 05:06:19;;;;;;;3.77;1.80;;;;;;;;;;1754555;82;21177;-87
2022/05/20 05:08:50;;;;;;;6.03;2.20;;;;;;;;;;1754166;82;21166;-86
2022/05/20 05:11:21;;;;;;;3.83;1.95;;;;;;;;;;1752685;82;21260;-87
2022/05/20 05:13:51;;;;;;;4.58;3.10;;;;;;;;;;1741695;81;21169;-87
2022/05/20 05:16:22;;;;;;;5.33;2.12;;;;;;;;;;1725605;83;21118;-86
2022/05/20 05:18:53;;;;;;;4.78;2.35;;;;;;;;;;1732827;82;21130;-87
2022/05/20 05:21:24;;;;;;;4.20;2.00;;;;;;;;;;1752609;82;21217;-87
2022/05/20 05:23:55;;;;;;;4.65;1.80;;;;;;;;;;1743718;82;21221;-86
2022/05/20 05:26:26;;;;;;;4.92;2.50;;;;;;;;;;1755759;82;21154;-87
2022/05/20 05:28:59;;;;;;;6.80;1.95;;;;;;;;;;1752107;82;21143;-88
2022/05/20 05:31:30;;;;;;;4.97;1.92;;;;;;;;;;1755221;80;21067;-87
2022/05/20 05:34:01;;;;;;;6.33;1.90;;;;;;;;;;1753087;82;21559;-88
2022/05/20 05:36:42;;;;;;;4.67;1.90;;;;;;;;;;1753911;80;21686;-87
2022/05/20 05:39:07;;;;;;;3.47;1.90;;;;;;;;;;1730068;81;21167;-86
2022/05/20 05:41:38;;;;;;;3.67;1.90;;;;;;;;;;1724476;83;21294;-87
2022/05/20 05:44:08;;;;;;;3.15;2.20;;;;;;;;;;1750032;82;21166;-87
2022/05/20 05:46:38;;;;;;;6.78;2.75;;;;;;;;;;1751999;82;21233;-86
2022/05/20 05:49:08;;;;;;;4.97;2.77;;;;;;;;;;1751496;82;21235;-88
2022/05/20 05:51:39;;;;;;;6.78;2.10;;;;;;;;;;1751591;82;21222;-87
2022/05/20 05:54:19;;;;;;;;;;;;;;;;;;;;;
2022/05/20 05:56:47;;;;;;;3.92;1.87;;;;;;;;;;1740244;82;21295;-86
2022/05/20 05:59:19;;;;;;;2.90;2.10;;;;;;;;;;1691694;83;21227;-87
2022/05/20 06:01:49;;;;;;;4.42;1.90;;;;;;;;;;1735609;83;21321;-87
2022/05/20 06:04:28;;;;;;;4.62;1.80;;;;;;;;;;1751752;82;21571;-88
2022/05/20 06:07:00;;;;;;;5.55;2.30;;;;;;;;;;1727183;83;21154;-87
2022/05/20 06:09:32;;;;;;;6.42;2.10;;;;;;;;;;1724375;83;21165;-88
2022/05/20 07:20:18;;;;;;;7.08;2.80;;;29.80;99.90;;;;;;1798550;76;21146;31
2022/05/20 07:22:51;;;;;;;8.30;3.02;;;29.30;99.90;;;;;;1744925;80;21180;-88
2022/05/20 07:25:22;;;;;;;6.80;2.52;;;28.70;99.90;;;;;;1750085;81;21283;-88
2022/05/20 07:27:55;;;;;;;6.28;2.35;;;28.40;99.90;;;;;;1737414;80;21221;-88
2022/05/20 07:30:29;;;;;;;7.05;2.60;;;28.50;99.90;;;;;;1767860;80;21152;-88
2022/05/20 07:33:01;;;;;;;5.92;2.37;;;28.30;99.90;;;;;;1750247;80;21568;-88
2022/05/20 07:35:43;;;;;;;3.90;2.12;;;28.30;99.90;;;;;;1738215;80;21144;-87
2022/05/20 07:38:19;;;;;;;7.05;2.50;;;28.40;99.90;;;;;;1758470;78;21233;-89
2022/05/20 07:40:57;;;;;;;3.83;2.25;;;28.70;99.90;;;;;;1715294;82;21166;-89
2022/05/20 07:43:24;;;;;;;4.58;2.20;;;28.60;99.90;;;;;;1729236;81;21255;-90
2022/05/20 07:45:55;;;;;;;4.97;2.47;;;29.00;99.90;;;;;;1754138;80;21534;-88
2022/05/20 07:48:26;;;;;;;8.03;2.47;;;28.90;99.90;;;;;;1757171;80;21178;-87
2022/05/20 07:50:59;;;;;;;7.20;2.92;;;29.20;99.90;;;;;;1765081;79;21280;-87
2022/05/20 07:53:37;;;;;;;4.87;2.67;;;29.30;99.90;;;;;;1739613;81;21244;-85
2022/05/20 07:56:06;;;;;;;4.78;2.65;;;29.50;99.90;;;;;;1762810;79;21134;-87
2022/05/20 07:58:39;;;;;;;5.60;2.83;;;29.20;99.90;;;;;;1754300;80;21330;-88
2022/05/20 08:01:12;;;;;;;5.67;2.40;;;29.20;99.90;;;;;;1753635;80;21160;-86
2022/05/20 08:06:17;;;;;;;5.47;2.40;;;29.40;99.90;;;;;;1754183;81;21604;-87
2022/05/20 08:08:48;;;;;;;3.58;2.15;;;29.60;99.90;;;;;;1759902;80;21119;-87
2022/05/20 08:11:23;;;;;;;6.95;2.00;;;29.30;99.90;;;;;;1741003;79;21277;-87
2022/05/20 08:13:54;;;;;;;7.78;3.92;;;29.50;99.90;;;;;;1755231;81;21692;-87
2022/05/20 08:16:25;;;;;;;7.03;2.83;;;29.70;99.90;;;;;;1771736;80;21209;-87
2022/05/20 08:18:58;;;;;;;4.45;2.10;;;29.40;99.90;;;;;;1752862;80;21786;-85
2022/05/20 08:21:29;;;;;;;3.90;1.87;;;29.60;99.90;;;;;;1744819;80;21098;-88
2022/05/20 08:24:02;;;;;;;5.92;2.60;;;29.90;99.90;;;;;;1756962;81;21197;-89
2022/05/20 08:26:33;;;;;;;6.00;2.50;;;29.70;99.90;;;;;;1745436;80;21598;-88
2022/05/20 08:29:06;;;;;;;4.65;2.55;;;29.80;99.90;;;;;;1744082;79;21617;-87
2022/05/20 08:31:41;;;;;;;6.67;2.98;;;29.80;99.90;;;;;;1755067;80;21866;-87
2022/05/20 08:34:14;;;;;;;5.78;2.90;;;29.70;99.90;;;;;;1751933;80;21438;-88
2022/05/20 08:36:45;;;;;;;3.72;2.58;;;30.30;99.90;;;;;;1748199;80;21675;-89
2022/05/20 08:39:16;;;;;;;5.62;3.50;;;29.50;99.90;;;;;;1743791;80;21228;-88
2022/05/20 08:41:53;;;;;;;8.25;3.20;;;29.30;99.90;;;;;;1747356;78;21590;-87
2022/05/20 08:44:25;;;;;;;5.35;2.85;;;29.70;99.90;;;;;;1728552;82;21204;-88
2022/05/20 08:47:02;;;;;;;5.45;2.65;;;29.30;99.90;;;;;;1769131;80;21220;-88
2022/05/20 08:49:34;;;;;;;3.95;2.45;;;29.20;99.90;;;;;;1759247;77;21193;-86
2022/05/20 08:52:06;;;;;;;3.12;1.50;;;29.50;99.90;;;;;;1753445;78;21111;-87
2022/05/20 08:54:37;;;;;;;6.53;2.17;;;29.10;99.90;;;;;;1756894;78;21134;-86
2022/05/20 08:57:14;;;;;;;4.20;2.30;;;29.50;99.90;;;;;;1711644;79;21212;-87
2022/05/20 08:59:45;;;;;;;4.80;2.10;;;29.40;99.90;;;;;;1682272;81;21314;-87
2022/05/20 09:02:20;;;;;;;5.30;2.60;;;29.40;99.90;;;;;;1708794;80;21201;-86
2022/05/20 09:04:54;;;;;;;3.45;1.77;;;29.10;99.90;;;;;;1760142;79;21229;-86
2022/05/20 09:07:33;;;;;;;3.27;1.98;;;29.50;99.90;;;;;;1751584;79;21458;-88
2022/05/20 09:10:09;;;;;;;4.80;1.72;;;29.20;99.90;;;;;;1738680;77;21156;-86
2022/05/20 09:12:42;;;;;;;4.25;1.77;;;29.40;99.90;;;;;;1740074;78;21242;-86
2022/05/20 09:17:53;;;;;;;7.17;2.47;;;29.30;99.90;;;;;;1745304;79;21586;-87
2022/05/20 09:20:25;;;;;;;5.05;2.00;;;29.20;99.90;;;;;;1758206;81;21153;-87
2022/05/20 09:22:59;;;;;;;4.15;2.33;;;29.60;99.90;;;;;;1757692;79;21337;-86
2022/05/20 09:25:36;;;;;;;6.20;2.25;;;29.50;99.90;;;;;;1739872;81;21237;-88
2022/05/20 09:28:13;;;;;;;3.98;2.22;;;29.40;99.90;;;;;;1750471;80;21127;-87
2022/05/20 09:30:56;;;;;;;4.50;1.90;;;29.10;99.90;;;;;;1745338;80;21238;-86
2022/05/20 09:33:24;;;;;;;6.08;3.05;;;29.00;99.90;;;;;;1706642;82;21117;-88
2022/05/20 09:36:08;;;;;;;3.15;2.10;;;29.20;99.90;;;;;;1727230;82;21206;-88
2022/05/20 09:38:41;;;;;;;5.75;2.65;;;29.10;99.90;;;;;;1755005;80;21590;-86
2022/05/20 09:41:18;;;;;;;5.47;2.02;;;29.00;99.90;;;;;;1741505;80;21675;-87
2022/05/20 09:43:55;;;;;;;6.08;2.22;;;29.00;99.90;;;;;;1762064;79;21212;-88
2022/05/20 09:46:32;;;;;;;5.12;2.00;;;29.20;99.90;;;;;;1761534;80;21133;-88
2022/05/20 09:49:06;;;;;;;3.50;1.45;;;29.30;99.90;;;;;;1753739;80;21206;-87
2022/05/20 09:51:45;;;;;;;5.37;1.80;;;29.40;99.90;;;;;;1753799;80;21164;-86
2022/05/20 09:54:18;;;;;;;4.60;1.77;;;29.00;99.90;;;;;;1751907;80;21161;-88
2022/05/20 09:56:58;;;;;;;5.35;2.40;;;29.20;99.90;;;;;;1751119;80;21177;-87
2022/05/20 09:59:34;;;;;;;4.45;2.30;;;28.80;99.90;;;;;;1722161;82;21256;-87
2022/05/20 10:02:07;;;;;;;4.30;1.80;;;29.10;99.90;;;;;;1716680;81;21287;-88
2022/05/20 10:04:47;;;;;;;2.70;1.60;;;29.10;99.90;;;;;;1722872;81;21185;-88
2022/05/20 10:07:42;;;;;;;4.17;1.90;;;29.00;99.90;;;;;;1750645;78;21154;-87
2022/05/20 10:10:15;;;;;;;3.92;1.60;;;28.60;99.90;;;;;;1777730;78;21202;-86
2022/05/20 10:12:52;;;;;;;3.85;1.25;;;28.50;99.90;;;;;;1768453;78;21103;-85
2022/05/20 10:15:25;;;;;;;3.90;1.42;;;28.80;99.90;;;;;;1753307;80;21240;-86
2022/05/20 10:18:00;;;;;;;5.08;1.57;;;28.70;99.90;;;;;;1733377;79;21404;-87
2022/05/20 10:20:33;;;;;;;4.28;1.27;;;28.70;99.90;;;;;;1715446;81;21150;-87
2022/05/20 10:23:09;;;;;;;2.95;1.15;;;28.60;99.90;;;;;;1745445;80;21173;-85
2022/05/20 10:25:46;;;;;;;3.05;1.20;;;28.30;99.90;;;;;;1747896;80;21126;-87
2022/05/20 10:32:34;;;;;;;5.83;1.42;;;28.20;99.90;;;;;;1762396;80;21177;-85
2022/05/20 10:33:43;;;;;;;3.90;1.45;;;28.30;99.90;;;;;;1695942;83;21146;-85
2022/05/20 10:36:14;;;;;;;5.75;1.45;;;27.90;99.90;;;;;;1766119;80;21252;-85
2022/05/20 10:38:45;;;;;;;4.92;1.75;;;27.90;99.90;;;;;;1747864;80;21500;-88
2022/05/20 10:41:19;;;;;;;6.35;1.65;;;28.00;99.90;;;;;;1772491;80;21349;-87
2022/05/20 10:49:02;;;;;;;5.78;1.60;;;27.70;99.90;;;;;;1750334;80;21166;-87
2022/05/20 10:51:35;;;;;;;5.72;1.50;;;28.00;99.90;;;;;;1703785;82;21215;-86
2022/05/20 10:54:10;;;;;;;6.17;1.80;;;27.70;99.90;;;;;;1758308;80;21238;-84
2022/05/20 10:56:45;;;;;;;3.10;1.65;;;27.70;99.90;;;;;;1728404;82;21233;-88
2022/05/20 10:59:18;;;;;;;7.12;2.05;;;27.50;99.90;;;;;;1773425;80;21149;-87
2022/05/20 11:01:58;;;;;;;10.43;2.05;;;27.60;99.90;;;;;;1740928;80;21114;-85
2022/05/20 11:04:31;;;;;;;6.65;1.85;;;27.70;99.90;;;;;;1734726;82;21195;-86
2022/05/20 11:07:06;;;;;;;7.33;2.50;;;27.50;99.90;;;;;;1772792;80;21134;-86
2022/05/20 11:09:39;;;;;;;6.85;2.40;;;27.70;99.90;;;;;;1773295;80;21659;-86
2022/05/20 11:12:13;;;;;;;7.28;2.00;;;27.60;99.90;;;;;;1772026;80;21126;-86
2022/05/20 11:14:45;;;;;;;5.25;1.92;;;27.30;99.90;;;;;;1772131;80;21589;-87
2022/05/20 11:17:18;;;;;;;9.28;4.75;;;27.20;99.90;;;;;;1769795;81;21169;-87
2022/05/20 11:19:51;;;;;;;11.03;6.45;;;27.20;99.90;;;;;;1767022;80;21125;-85
2022/05/20 11:22:39;;;;;;;5.55;2.52;;;27.20;99.90;;;;;;1767504;80;21161;-86
2022/05/20 11:25:10;;;;;;;5.50;2.52;;;27.30;99.90;;;;;;1763389;80;21138;-87
2022/05/20 11:27:45;;;;;;;11.53;6.75;;;27.10;99.90;;;;;;1763597;80;21168;-87
2022/05/20 11:30:19;;;;;;;7.00;2.77;;;27.00;99.90;;;;;;1733331;81;21292;-88
2022/05/20 11:32:53;;;;;;;5.20;2.62;;;27.00;99.90;;;;;;1744456;81;21594;-87
2022/05/20 11:35:27;;;;;;;5.50;2.35;;;27.10;99.90;;;;;;1774089;80;21686;-86
2022/05/20 11:38:00;;;;;;;5.35;1.72;;;26.90;99.90;;;;;;1753976;79;21285;-87
2022/05/20 11:40:33;;;;;;;3.75;1.67;;;27.00;99.90;;;;;;1717698;82;21258;-86
2022/05/20 11:43:06;;;;;;;5.87;2.22;;;26.90;99.90;;;;;;1662513;84;21148;-86
2022/05/20 11:45:40;;;;;;;6.30;1.80;;;26.80;99.90;;;;;;1738126;80;21657;-86
2022/05/20 11:48:12;;;;;;;6.78;2.08;;;26.90;99.90;;;;;;1746884;81;21177;-87
2022/05/20 11:50:50;;;;;;;6.72;1.92;;;26.80;99.90;;;;;;1740949;81;21226;-87
2022/05/20 11:53:18;;;;;;;5.33;1.70;;;26.80;99.90;;;;;;1749148;81;21231;-87
2022/05/20 11:55:50;;;;;;;8.50;6.55;;;26.70;99.90;;;;;;1749104;80;21205;-86
2022/05/20 11:58:24;;;;;;;5.40;2.05;;;26.80;99.90;;;;;;1742723;80;21273;-85
2022/05/20 12:00:56;;;;;;;5.75;1.92;;;26.70;99.90;;;;;;1752537;80;21244;-85
2022/05/20 12:03:30;;;;;;;5.40;2.00;;;26.70;99.90;;;;;;1745663;80;21205;-87
2022/05/20 12:06:12;;;;;;;6.60;1.95;;;26.80;99.90;;;;;;1746642;80;21645;-86
2022/05/20 12:08:44;;;;;;;4.85;2.27;;;26.60;99.90;;;;;;1752024;80;21587;-87
2022/05/20 12:11:16;;;;;;;8.25;2.20;;;26.70;99.90;;;;;;1741966;80;21107;-87
2022/05/20 12:13:49;;;;;;;9.48;2.85;;;26.70;99.90;;;;;;1754436;80;21230;-86
2022/05/20 12:16:21;;;;;;;5.75;2.00;;;26.80;99.90;;;;;;1754487;80;21165;-88
2022/05/20 12:24:13;;;;;;;6.20;2.80;;;26.60;99.90;;;;;;1751470;80;21172;-88
2022/05/20 12:26:40;;;;;;;6.03;2.10;;;26.70;99.90;;;;;;1767837;80;21643;-88
2022/05/20 12:29:19;;;;;;;6.35;2.42;;;26.80;99.90;;;;;;1742736;80;21197;-87
2022/05/20 12:31:51;;;;;;;5.80;1.87;;;26.70;99.90;;;;;;1744939;80;21100;-86
2022/05/20 12:34:28;;;;;;;5.87;2.25;;;26.70;99.90;;;;;;1744122;81;21224;-86
2022/05/20 12:37:00;;;;;;;5.08;1.62;;;26.60;99.90;;;;;;1744222;80;21237;-88
2022/05/20 12:39:33;;;;;;;4.22;2.00;;;26.60;99.90;;;;;;1745649;81;21271;-87
2022/05/20 12:42:15;;;;;;;4.60;2.20;;;26.80;99.90;;;;;;1750859;80;21240;-86
2022/05/20 12:44:52;;;;;;;5.00;1.95;;;26.90;99.90;;;;;;1738020;81;21280;-88
2022/05/20 12:47:28;;;;;;;3.58;2.00;;;26.70;99.90;;;;;;1718296;82;21290;-87
2022/05/20 12:50:07;;;;;;;5.12;2.12;;;26.90;99.90;;;;;;1754651;80;21213;-86
2022/05/20 12:52:41;;;;;;;6.33;2.20;;;26.70;99.90;;;;;;1734805;81;21267;-87
2022/05/20 12:55:14;;;;;;;6.87;2.20;;;26.60;99.90;;;;;;1744938;80;21187;-87
2022/05/20 12:57:47;;;;;;;5.85;2.30;;;26.60;99.90;;;;;;1745249;80;21367;-85
2022/05/20 13:00:20;;;;;;;5.42;2.10;;;26.60;99.90;;;;;;1742962;80;21127;-88
2022/05/20 13:02:55;;;;;;;5.42;2.10;;;26.60;99.90;;;;;;1742202;80;21165;-87
2022/05/20 13:05:28;;;;;;;5.08;2.15;;;26.60;99.90;;;;;;1715955;82;21597;-88
2022/05/20 13:08:10;;;;;;;8.88;2.45;;;26.80;99.90;;;;;;1748941;80;21261;-89
2022/05/20 13:10:42;;;;;;;5.83;2.15;;;26.70;99.90;;;;;;1768340;80;21247;-88
2022/05/20 13:13:18;;;;;;;3.60;2.30;;;26.60;99.90;;;;;;1766556;79;21194;-88
2022/05/20 13:18:38;;;;;;;4.05;2.62;;;26.60;99.90;;;;;;1683337;84;21769;-86
2022/05/20 13:21:16;;;;;;;5.40;2.33;;;26.60;99.90;;;;;;1671563;84;21542;-86
2022/05/20 13:27:04;;;;;;;3.72;2.30;;;26.50;99.90;;;;;;1964735;72;22593;-86
2022/05/20 13:29:45;;;;;;;4.53;2.40;;;26.50;99.90;;;;;;1916083;73;21213;-86
2022/05/20 13:32:17;;;;;;;6.92;2.83;;;26.70;99.90;;;;;;1916332;73;21575;-87
2022/05/20 13:34:53;;;;;;;5.03;2.20;;;26.50;99.90;;;;;;1917617;73;21104;-86
2022/05/20 13:37:28;;;;;;;4.67;2.40;;;26.70;99.90;;;;;;1915421;73;21094;-88
2022/05/20 13:40:07;;;;;;;5.87;2.20;;;26.60;99.90;;;;;;1918099;73;21096;-87
2022/05/20 13:42:34;;;;;;;7.17;2.30;;;26.50;99.90;;;;;;1928316;73;21162;-87
2022/05/20 13:45:08;;;;;;;6.40;2.58;;;26.40;99.90;;;;;;1916398;73;21131;-87
2022/05/20 13:50:12;;;;;;;5.12;2.08;;;26.50;99.90;;;;;;1916021;73;21188;-86
2022/05/20 13:52:51;;;;;;;5.85;2.72;;;26.70;99.90;;;;;;1916446;73;21144;-88
2022/05/20 13:55:32;;;;;;;4.53;1.92;;;26.50;99.90;;;;;;1915031;73;21153;-88
2022/05/20 13:58:04;;;;;;;4.40;1.87;;;26.60;99.90;;;;;;1921959;73;21254;-87
2022/05/20 14:00:38;;;;;;;4.28;2.37;;;26.40;99.90;;;;;;1922622;73;21137;-89
2022/05/20 14:03:11;;;;;;;8.00;2.12;;;26.60;99.90;;;;;;1917100;73;21129;-88
2022/05/20 14:05:43;;;;;;;4.40;2.17;;;26.60;99.90;;;;;;1913615;73;21235;-88
2022/05/20 14:08:16;;;;;;;3.52;1.82;;;26.40;99.90;;;;;;1924086;73;21128;-88
2022/05/20 14:10:50;;;;;;;7.42;2.33;;;26.60;99.90;;;;;;1921421;73;21096;-88
2022/05/20 14:13:37;;;;;;;6.12;1.92;;;26.50;99.90;;;;;;1919669;73;21612;-87
2022/05/20 14:16:08;;;;;;;4.20;2.12;;;26.40;99.90;;;;;;1919265;73;21165;-87
2022/05/20 14:18:41;;;;;;;5.40;2.02;;;26.60;99.90;;;;;;1910615;73;21159;-88
2022/05/20 14:21:13;;;;;;;6.05;1.82;;;26.50;99.90;;;;;;1920278;73;21169;-87
2022/05/20 14:23:47;;;;;;;7.53;2.02;;;26.40;99.90;;;;;;1922217;73;21136;-87
2022/05/20 14:26:24;;;;;;;5.50;2.27;;;26.60;99.90;;;;;;1925503;73;21117;-87
2022/05/20 14:28:59;;;;;;;4.65;2.40;;;26.40;99.90;;;;;;1919487;73;21219;-87
2022/05/20 14:31:33;;;;;;;5.78;2.15;;;26.40;99.90;;;;;;1916011;71;21134;-85
2022/05/20 14:34:15;;;;;;;4.92;2.17;;;26.40;99.90;;;;;;1913407;72;21194;-87
2022/05/20 14:36:57;;;;;;;5.65;1.87;;;26.60;99.90;;;;;;1898244;71;21095;-86
2022/05/20 14:39:30;;;;;;;3.37;2.00;;;26.40;99.90;;;;;;1894458;72;21139;-88
2022/05/20 14:42:07;;;;;;;4.62;2.20;;;26.70;99.90;;;;;;1867673;73;21111;-88
2022/05/20 14:44:39;;;;;;;6.12;2.05;;;26.50;99.90;;;;;;1874804;72;21049;-88
2022/05/20 14:47:41;;;;;;;5.62;1.95;;;26.60;99.90;;;;;;1823757;75;21256;-88
2022/05/20 14:50:13;;;;;;;4.75;1.75;;;26.40;99.90;;;;;;1846285;73;21208;-87
2022/05/20 14:52:58;;;;;;;7.47;2.30;;;26.50;99.90;;;;;;1831448;77;21226;-88
2022/05/20 14:55:33;;;;;;;3.58;1.98;;;26.50;99.90;;;;;;1813312;77;21202;-88
2022/05/20 14:58:09;;;;;;;5.17;2.10;;;26.60;99.90;;;;;;1818798;77;21147;-88
2022/05/20 15:00:59;;;;;;;;;;;;;;;;;;;;;
2022/05/20 15:03:27;;;;;;;7.60;2.30;;;26.50;99.90;;;;;;1818600;77;21240;-88
2022/05/20 15:06:07;;;;;;;6.33;1.90;;;26.40;99.90;;;;;;1794019;78;21212;-88
2022/05/20 15:08:44;;;;;;;4.37;2.08;;;26.40;99.90;;;;;;1815313;77;21173;-90
2022/05/20 15:11:27;;;;;;;4.87;2.42;;;26.50;99.90;;;;;;1816547;77;21260;-88
2022/05/20 15:14:07;;;;;;;9.28;2.77;;;26.60;99.90;;;;;;1815832;77;21166;-87
2022/05/20 15:16:42;;;;;;;4.22;2.02;;;26.60;99.90;;;;;;1807053;78;21764;-88
2022/05/20 15:19:25;;;;;;;4.45;2.00;;;26.50;99.90;;;;;;1851624;77;21155;-88
2022/05/20 15:22:02;;;;;;;6.20;2.12;;;26.50;99.90;;;;;;1853556;77;21278;-88
2022/05/20 15:24:44;;;;;;;4.10;2.35;;;26.40;99.90;;;;;;1849376;74;21167;-88
2022/05/20 15:30:24;;;;;;;4.67;1.92;;;26.50;99.90;;;;;;1842552;75;21246;-87
2022/05/20 15:35:57;;;;;;;6.20;2.27;;;26.50;99.90;;;;;;1828782;74;21266;-87
2022/05/20 15:41:45;;;;;;;5.15;2.85;;;26.70;99.90;;;;;;1852350;72;21068;-90
2022/05/20 15:44:48;;;;;;;4.70;2.50;;;26.50;99.90;;;;;;1834694;73;21206;-89
2022/05/20 15:47:26;;;;;;;6.28;3.15;;;26.70;99.90;;;;;;1797639;75;21107;-88
2022/05/20 15:53:08;;;;;;;7.62;3.08;;;26.50;99.90;;;;;;1881086;73;21080;-88
2022/05/20 15:55:57;;;;;;;5.87;2.80;;;26.50;99.90;;;;;;1928408;73;21065;-89
2022/05/20 16:01:56;;;;;;;4.62;2.45;;;26.50;99.90;;;;;;1888569;71;21110;-88